sensor_id;sensor_type;location;lat;lon;timestamp;P1;durP1;ratioP1;P2;durP2;ratioP2
5133;SDS011;2585;48.696;10.066;2022-07-23T00:00:16;9.83;;;7.80;;
5133;SDS011;2585;48.696;10.066;2022-07-23T00:02:44;9.27;;;7.83;;
5133;SDS011;2585;48.696;10.066;2022-07-23T00:05:11;9.03;;;7.53;;
5133;SDS011;2585;48.696;10.066;2022-07-23T00:07:38;10.30;;;7.80;;
5133;SDS011;2585;48.696;10.066;2022-07-23T00:10:05;8.33;;;7.33;;
5133;SDS011;2585;48.696;10.066;2022-07-23T00:12:33;8.00;;;7.20;;
5133;SDS011;2585;48.696;10.066;2022-07-23T00:15:00;8.63;;;7.73;;
5133;SDS011;2585;48.696;10.066;2022-07-23T00:17:28;7.90;;;7.10;;
5133;SDS011;2585;48.696;10.066;2022-07-23T00:19:55;8.53;;;7.10;;
5133;SDS011;2585;48.696;10.066;2022-07-23T00:22:23;13.17;;;7.70;;
5133;SDS011;2585;48.696;10.066;2022-07-23T00:24:49;7.70;;;6.30;;
5133;SDS011;2585;48.696;10.066;2022-07-23T00:27:36;9.90;;;7.50;;
5133;SDS011;2585;48.696;10.066;2022-07-23T00:30:03;7.20;;;6.60;;
5133;SDS011;2585;48.696;10.066;2022-07-23T00:32:31;7.60;;;6.80;;
5133;SDS011;2585;48.696;10.066;2022-07-23T00:35:21;10.43;;;6.10;;
5133;SDS011;2585;48.696;10.066;2022-07-23T00:37:48;7.80;;;6.93;;
5133;SDS011;2585;48.696;10.066;2022-07-23T00:40:15;8.20;;;6.97;;
5133;SDS011;2585;48.696;10.066;2022-07-23T00:42:42;9.00;;;7.27;;
5133;SDS011;2585;48.696;10.066;2022-07-23T00:45:09;7.90;;;7.00;;
5133;SDS011;2585;48.696;10.066;2022-07-23T00:47:36;7.03;;;6.33;;
5133;SDS011;2585;48.696;10.066;2022-07-23T00:50:03;7.50;;;6.43;;
5133;SDS011;2585;48.696;10.066;2022-07-23T00:52:32;6.30;;;5.70;;
5133;SDS011;2585;48.696;10.066;2022-07-23T00:54:59;9.37;;;6.37;;
5133;SDS011;2585;48.696;10.066;2022-07-23T00:57:26;6.57;;;5.80;;
5133;SDS011;2585;48.696;10.066;2022-07-23T00:59:54;7.07;;;6.30;;
5133;SDS011;2585;48.696;10.066;2022-07-23T01:02:22;11.90;;;6.17;;
5133;SDS011;2585;48.696;10.066;2022-07-23T01:04:49;6.43;;;5.70;;
5133;SDS011;2585;48.696;10.066;2022-07-23T01:07:16;7.03;;;6.33;;
5133;SDS011;2585;48.696;10.066;2022-07-23T01:09:44;6.60;;;5.90;;
5133;SDS011;2585;48.696;10.066;2022-07-23T01:12:12;12.80;;;5.73;;
5133;SDS011;2585;48.696;10.066;2022-07-23T01:14:39;14.53;;;6.30;;
5133;SDS011;2585;48.696;10.066;2022-07-23T01:17:05;7.77;;;6.77;;
5133;SDS011;2585;48.696;10.066;2022-07-23T01:19:32;8.77;;;5.60;;
5133;SDS011;2585;48.696;10.066;2022-07-23T01:22:00;6.87;;;6.17;;
5133;SDS011;2585;48.696;10.066;2022-07-23T01:24:29;7.47;;;6.30;;
5133;SDS011;2585;48.696;10.066;2022-07-23T01:26:56;6.77;;;5.73;;
5133;SDS011;2585;48.696;10.066;2022-07-23T01:29:23;9.53;;;6.93;;
5133;SDS011;2585;48.696;10.066;2022-07-23T01:31:50;8.57;;;6.43;;
5133;SDS011;2585;48.696;10.066;2022-07-23T01:34:17;6.93;;;6.23;;
5133;SDS011;2585;48.696;10.066;2022-07-23T01:36:44;11.23;;;6.30;;
5133;SDS011;2585;48.696;10.066;2022-07-23T01:39:11;6.93;;;6.03;;
5133;SDS011;2585;48.696;10.066;2022-07-23T01:41:38;7.13;;;6.40;;
5133;SDS011;2585;48.696;10.066;2022-07-23T01:44:05;6.90;;;6.20;;
5133;SDS011;2585;48.696;10.066;2022-07-23T01:46:31;6.37;;;5.77;;
5133;SDS011;2585;48.696;10.066;2022-07-23T01:48:58;7.37;;;6.67;;
5133;SDS011;2585;48.696;10.066;2022-07-23T01:51:26;7.47;;;6.23;;
5133;SDS011;2585;48.696;10.066;2022-07-23T01:53:53;9.43;;;6.37;;
5133;SDS011;2585;48.696;10.066;2022-07-23T01:56:19;7.40;;;6.50;;
5133;SDS011;2585;48.696;10.066;2022-07-23T01:58:47;7.00;;;6.30;;
5133;SDS011;2585;48.696;10.066;2022-07-23T02:01:15;8.23;;;7.37;;
5133;SDS011;2585;48.696;10.066;2022-07-23T02:03:42;7.20;;;6.50;;
5133;SDS011;2585;48.696;10.066;2022-07-23T02:06:09;7.00;;;6.10;;
5133;SDS011;2585;48.696;10.066;2022-07-23T02:08:36;10.33;;;6.50;;
5133;SDS011;2585;48.696;10.066;2022-07-23T02:11:02;6.60;;;6.00;;
5133;SDS011;2585;48.696;10.066;2022-07-23T02:13:29;10.20;;;5.97;;
5133;SDS011;2585;48.696;10.066;2022-07-23T02:15:59;7.77;;;5.77;;
5133;SDS011;2585;48.696;10.066;2022-07-23T02:18:26;9.20;;;6.27;;
5133;SDS011;2585;48.696;10.066;2022-07-23T02:20:53;9.63;;;6.37;;
5133;SDS011;2585;48.696;10.066;2022-07-23T02:23:20;8.70;;;6.23;;
5133;SDS011;2585;48.696;10.066;2022-07-23T02:25:47;6.67;;;5.97;;
5133;SDS011;2585;48.696;10.066;2022-07-23T02:28:14;6.27;;;5.20;;
5133;SDS011;2585;48.696;10.066;2022-07-23T02:30:41;7.20;;;5.70;;
5133;SDS011;2585;48.696;10.066;2022-07-23T02:33:08;6.60;;;5.90;;
5133;SDS011;2585;48.696;10.066;2022-07-23T02:35:35;8.37;;;7.30;;
5133;SDS011;2585;48.696;10.066;2022-07-23T02:38:02;10.53;;;6.17;;
5133;SDS011;2585;48.696;10.066;2022-07-23T02:40:28;7.40;;;5.77;;
5133;SDS011;2585;48.696;10.066;2022-07-23T02:42:55;8.63;;;6.40;;
5133;SDS011;2585;48.696;10.066;2022-07-23T02:45:22;6.97;;;6.27;;
5133;SDS011;2585;48.696;10.066;2022-07-23T02:47:49;8.40;;;6.50;;
5133;SDS011;2585;48.696;10.066;2022-07-23T02:50:16;6.57;;;5.97;;
5133;SDS011;2585;48.696;10.066;2022-07-23T02:52:43;6.87;;;6.27;;
5133;SDS011;2585;48.696;10.066;2022-07-23T02:55:09;8.13;;;6.30;;
5133;SDS011;2585;48.696;10.066;2022-07-23T02:57:37;6.50;;;5.23;;
5133;SDS011;2585;48.696;10.066;2022-07-23T03:00:04;9.37;;;5.43;;
5133;SDS011;2585;48.696;10.066;2022-07-23T03:02:32;7.30;;;5.13;;
5133;SDS011;2585;48.696;10.066;2022-07-23T03:04:59;6.03;;;5.47;;
5133;SDS011;2585;48.696;10.066;2022-07-23T03:07:26;6.40;;;5.47;;
5133;SDS011;2585;48.696;10.066;2022-07-23T03:09:53;6.43;;;5.73;;
5133;SDS011;2585;48.696;10.066;2022-07-23T03:12:19;8.07;;;5.70;;
5133;SDS011;2585;48.696;10.066;2022-07-23T03:14:46;8.07;;;5.83;;
5133;SDS011;2585;48.696;10.066;2022-07-23T03:17:13;10.07;;;6.20;;
5133;SDS011;2585;48.696;10.066;2022-07-23T03:19:40;8.90;;;6.43;;
5133;SDS011;2585;48.696;10.066;2022-07-23T03:22:07;6.73;;;5.87;;
5133;SDS011;2585;48.696;10.066;2022-07-23T03:24:34;7.00;;;6.30;;
5133;SDS011;2585;48.696;10.066;2022-07-23T03:27:23;6.73;;;6.00;;
5133;SDS011;2585;48.696;10.066;2022-07-23T03:29:51;12.20;;;6.23;;
5133;SDS011;2585;48.696;10.066;2022-07-23T03:32:19;6.53;;;5.77;;
5133;SDS011;2585;48.696;10.066;2022-07-23T03:34:46;7.63;;;5.70;;
5133;SDS011;2585;48.696;10.066;2022-07-23T03:37:13;12.00;;;5.80;;
5133;SDS011;2585;48.696;10.066;2022-07-23T03:39:41;7.63;;;6.43;;
5133;SDS011;2585;48.696;10.066;2022-07-23T03:42:09;6.67;;;6.07;;
5133;SDS011;2585;48.696;10.066;2022-07-23T03:44:35;9.60;;;6.70;;
5133;SDS011;2585;48.696;10.066;2022-07-23T03:47:06;6.97;;;6.27;;
5133;SDS011;2585;48.696;10.066;2022-07-23T03:49:33;8.33;;;6.00;;
5133;SDS011;2585;48.696;10.066;2022-07-23T03:52:00;7.33;;;6.10;;
5133;SDS011;2585;48.696;10.066;2022-07-23T03:54:27;7.00;;;5.73;;
5133;SDS011;2585;48.696;10.066;2022-07-23T03:56:54;7.23;;;6.53;;
5133;SDS011;2585;48.696;10.066;2022-07-23T03:59:21;9.63;;;6.50;;
5133;SDS011;2585;48.696;10.066;2022-07-23T04:01:49;6.93;;;6.23;;
5133;SDS011;2585;48.696;10.066;2022-07-23T04:04:17;10.53;;;6.63;;
5133;SDS011;2585;48.696;10.066;2022-07-23T04:06:44;7.00;;;6.30;;
5133;SDS011;2585;48.696;10.066;2022-07-23T04:09:11;7.10;;;6.40;;
5133;SDS011;2585;48.696;10.066;2022-07-23T04:11:38;9.30;;;6.67;;
5133;SDS011;2585;48.696;10.066;2022-07-23T04:14:05;6.97;;;6.23;;
5133;SDS011;2585;48.696;10.066;2022-07-23T04:16:32;6.57;;;5.83;;
5133;SDS011;2585;48.696;10.066;2022-07-23T04:18:59;7.87;;;6.27;;
5133;SDS011;2585;48.696;10.066;2022-07-23T04:21:26;8.83;;;6.50;;
5133;SDS011;2585;48.696;10.066;2022-07-23T04:23:53;8.00;;;6.30;;
5133;SDS011;2585;48.696;10.066;2022-07-23T04:26:19;9.10;;;7.33;;
5133;SDS011;2585;48.696;10.066;2022-07-23T04:28:47;7.90;;;6.47;;
5133;SDS011;2585;48.696;10.066;2022-07-23T04:31:14;7.80;;;6.50;;
5133;SDS011;2585;48.696;10.066;2022-07-23T04:33:41;12.27;;;6.27;;
5133;SDS011;2585;48.696;10.066;2022-07-23T04:36:08;7.73;;;5.93;;
5133;SDS011;2585;48.696;10.066;2022-07-23T04:38:34;9.37;;;7.20;;
5133;SDS011;2585;48.696;10.066;2022-07-23T04:41:01;7.03;;;6.07;;
5133;SDS011;2585;48.696;10.066;2022-07-23T04:43:28;14.00;;;6.33;;
5133;SDS011;2585;48.696;10.066;2022-07-23T04:45:55;7.53;;;6.73;;
5133;SDS011;2585;48.696;10.066;2022-07-23T04:48:22;13.30;;;7.07;;
5133;SDS011;2585;48.696;10.066;2022-07-23T04:50:49;6.60;;;6.00;;
5133;SDS011;2585;48.696;10.066;2022-07-23T04:53:16;7.03;;;6.27;;
5133;SDS011;2585;48.696;10.066;2022-07-23T04:55:44;9.10;;;6.97;;
5133;SDS011;2585;48.696;10.066;2022-07-23T04:58:11;9.90;;;6.70;;
5133;SDS011;2585;48.696;10.066;2022-07-23T05:00:38;11.60;;;6.27;;
5133;SDS011;2585;48.696;10.066;2022-07-23T05:03:05;10.40;;;7.30;;
5133;SDS011;2585;48.696;10.066;2022-07-23T05:05:32;7.13;;;6.00;;
5133;SDS011;2585;48.696;10.066;2022-07-23T05:07:58;8.57;;;6.90;;
5133;SDS011;2585;48.696;10.066;2022-07-23T05:10:25;8.73;;;7.00;;
5133;SDS011;2585;48.696;10.066;2022-07-23T05:12:52;13.13;;;8.03;;
5133;SDS011;2585;48.696;10.066;2022-07-23T05:15:19;10.37;;;6.97;;
5133;SDS011;2585;48.696;10.066;2022-07-23T05:17:46;11.00;;;7.70;;
5133;SDS011;2585;48.696;10.066;2022-07-23T05:20:13;8.63;;;7.40;;
5133;SDS011;2585;48.696;10.066;2022-07-23T05:22:40;12.53;;;7.80;;
5133;SDS011;2585;48.696;10.066;2022-07-23T05:25:07;11.40;;;8.17;;
5133;SDS011;2585;48.696;10.066;2022-07-23T05:27:34;11.27;;;7.03;;
5133;SDS011;2585;48.696;10.066;2022-07-23T05:30:02;9.93;;;6.93;;
5133;SDS011;2585;48.696;10.066;2022-07-23T05:32:30;10.97;;;7.77;;
5133;SDS011;2585;48.696;10.066;2022-07-23T05:34:58;9.67;;;8.03;;
5133;SDS011;2585;48.696;10.066;2022-07-23T05:37:25;9.60;;;7.37;;
5133;SDS011;2585;48.696;10.066;2022-07-23T05:39:52;8.27;;;7.43;;
5133;SDS011;2585;48.696;10.066;2022-07-23T05:42:19;14.60;;;8.93;;
5133;SDS011;2585;48.696;10.066;2022-07-23T05:44:46;9.27;;;7.33;;
5133;SDS011;2585;48.696;10.066;2022-07-23T05:47:12;8.07;;;7.30;;
5133;SDS011;2585;48.696;10.066;2022-07-23T05:49:39;16.07;;;8.50;;
5133;SDS011;2585;48.696;10.066;2022-07-23T05:52:06;14.57;;;7.50;;
5133;SDS011;2585;48.696;10.066;2022-07-23T05:54:34;14.53;;;8.03;;
5133;SDS011;2585;48.696;10.066;2022-07-23T05:57:02;9.03;;;7.73;;
5133;SDS011;2585;48.696;10.066;2022-07-23T05:59:29;11.33;;;7.93;;
5133;SDS011;2585;48.696;10.066;2022-07-23T06:01:56;10.10;;;7.90;;
5133;SDS011;2585;48.696;10.066;2022-07-23T06:04:23;10.93;;;7.40;;
5133;SDS011;2585;48.696;10.066;2022-07-23T06:06:50;9.20;;;7.90;;
5133;SDS011;2585;48.696;10.066;2022-07-23T06:09:17;11.67;;;7.57;;
5133;SDS011;2585;48.696;10.066;2022-07-23T06:11:44;14.57;;;7.50;;
5133;SDS011;2585;48.696;10.066;2022-07-23T06:14:11;9.50;;;7.70;;
5133;SDS011;2585;48.696;10.066;2022-07-23T06:16:38;8.10;;;7.30;;
5133;SDS011;2585;48.696;10.066;2022-07-23T06:19:04;10.20;;;7.50;;
5133;SDS011;2585;48.696;10.066;2022-07-23T06:21:31;9.03;;;7.20;;
5133;SDS011;2585;48.696;10.066;2022-07-23T06:24:12;8.60;;;6.27;;
5133;SDS011;2585;48.696;10.066;2022-07-23T06:26:39;9.80;;;6.77;;
5133;SDS011;2585;48.696;10.066;2022-07-23T06:29:06;9.07;;;7.37;;
5133;SDS011;2585;48.696;10.066;2022-07-23T06:31:33;10.83;;;7.80;;
5133;SDS011;2585;48.696;10.066;2022-07-23T06:34:00;6.73;;;6.13;;
5133;SDS011;2585;48.696;10.066;2022-07-23T06:36:27;9.70;;;7.50;;
5133;SDS011;2585;48.696;10.066;2022-07-23T06:38:54;7.67;;;6.97;;
5133;SDS011;2585;48.696;10.066;2022-07-23T06:41:20;8.47;;;6.67;;
5133;SDS011;2585;48.696;10.066;2022-07-23T06:43:48;7.97;;;7.17;;
5133;SDS011;2585;48.696;10.066;2022-07-23T06:46:16;7.00;;;6.30;;
5133;SDS011;2585;48.696;10.066;2022-07-23T06:48:43;8.03;;;7.23;;
5133;SDS011;2585;48.696;10.066;2022-07-23T06:51:10;9.10;;;6.90;;
5133;SDS011;2585;48.696;10.066;2022-07-23T06:53:36;11.63;;;6.80;;
5133;SDS011;2585;48.696;10.066;2022-07-23T06:56:03;6.87;;;6.27;;
5133;SDS011;2585;48.696;10.066;2022-07-23T06:58:30;7.13;;;6.40;;
5133;SDS011;2585;48.696;10.066;2022-07-23T07:00:57;7.73;;;6.87;;
5133;SDS011;2585;48.696;10.066;2022-07-23T07:03:24;7.20;;;6.50;;
5133;SDS011;2585;48.696;10.066;2022-07-23T07:05:51;9.20;;;6.20;;
5133;SDS011;2585;48.696;10.066;2022-07-23T07:08:19;6.80;;;5.60;;
5133;SDS011;2585;48.696;10.066;2022-07-23T07:10:46;7.70;;;5.33;;
5133;SDS011;2585;48.696;10.066;2022-07-23T07:13:12;7.13;;;5.83;;
5133;SDS011;2585;48.696;10.066;2022-07-23T07:15:39;9.27;;;5.23;;
5133;SDS011;2585;48.696;10.066;2022-07-23T07:18:07;7.67;;;5.60;;
5133;SDS011;2585;48.696;10.066;2022-07-23T07:20:34;8.93;;;5.93;;
5133;SDS011;2585;48.696;10.066;2022-07-23T07:23:01;5.50;;;4.90;;
5133;SDS011;2585;48.696;10.066;2022-07-23T07:25:27;6.07;;;4.90;;
5133;SDS011;2585;48.696;10.066;2022-07-23T07:27:55;6.30;;;5.13;;
5133;SDS011;2585;48.696;10.066;2022-07-23T07:30:22;6.43;;;5.33;;
5133;SDS011;2585;48.696;10.066;2022-07-23T07:32:49;5.93;;;5.40;;
5133;SDS011;2585;48.696;10.066;2022-07-23T07:35:22;5.73;;;5.03;;
5133;SDS011;2585;48.696;10.066;2022-07-23T07:37:49;4.77;;;4.37;;
5133;SDS011;2585;48.696;10.066;2022-07-23T07:40:16;6.90;;;5.13;;
5133;SDS011;2585;48.696;10.066;2022-07-23T07:42:46;8.50;;;4.97;;
5133;SDS011;2585;48.696;10.066;2022-07-23T07:45:14;4.67;;;4.17;;
5133;SDS011;2585;48.696;10.066;2022-07-23T07:47:41;5.97;;;4.13;;
5133;SDS011;2585;48.696;10.066;2022-07-23T07:50:08;5.80;;;4.83;;
5133;SDS011;2585;48.696;10.066;2022-07-23T07:52:37;4.70;;;4.30;;
5133;SDS011;2585;48.696;10.066;2022-07-23T07:55:05;5.53;;;4.93;;
5133;SDS011;2585;48.696;10.066;2022-07-23T07:57:34;4.97;;;4.47;;
5133;SDS011;2585;48.696;10.066;2022-07-23T08:00:03;7.50;;;4.87;;
5133;SDS011;2585;48.696;10.066;2022-07-23T08:02:43;7.00;;;4.90;;
5133;SDS011;2585;48.696;10.066;2022-07-23T08:05:11;5.00;;;4.50;;
5133;SDS011;2585;48.696;10.066;2022-07-23T08:07:39;7.60;;;4.87;;
5133;SDS011;2585;48.696;10.066;2022-07-23T08:10:09;5.53;;;4.80;;
5133;SDS011;2585;48.696;10.066;2022-07-23T08:12:47;7.33;;;4.47;;
5133;SDS011;2585;48.696;10.066;2022-07-23T08:15:15;6.30;;;5.07;;
5133;SDS011;2585;48.696;10.066;2022-07-23T08:17:45;7.23;;;4.70;;
5133;SDS011;2585;48.696;10.066;2022-07-23T08:20:14;5.33;;;4.60;;
5133;SDS011;2585;48.696;10.066;2022-07-23T08:25:20;5.00;;;4.50;;
5133;SDS011;2585;48.696;10.066;2022-07-23T08:27:58;7.03;;;5.60;;
5133;SDS011;2585;48.696;10.066;2022-07-23T08:30:26;7.50;;;4.80;;
5133;SDS011;2585;48.696;10.066;2022-07-23T08:33:01;6.40;;;5.30;;
5133;SDS011;2585;48.696;10.066;2022-07-23T08:35:31;6.90;;;5.10;;
5133;SDS011;2585;48.696;10.066;2022-07-23T08:38:11;9.00;;;5.20;;
5133;SDS011;2585;48.696;10.066;2022-07-23T08:40:41;5.93;;;5.30;;
5133;SDS011;2585;48.696;10.066;2022-07-23T08:43:12;5.43;;;4.67;;
5133;SDS011;2585;48.696;10.066;2022-07-23T08:45:41;5.33;;;4.53;;
5133;SDS011;2585;48.696;10.066;2022-07-23T08:48:13;5.17;;;4.67;;
5133;SDS011;2585;48.696;10.066;2022-07-23T08:50:43;5.30;;;4.80;;
5133;SDS011;2585;48.696;10.066;2022-07-23T08:53:12;8.40;;;4.57;;
5133;SDS011;2585;48.696;10.066;2022-07-23T08:55:40;5.70;;;4.77;;
5133;SDS011;2585;48.696;10.066;2022-07-23T08:58:13;4.97;;;4.57;;
5133;SDS011;2585;48.696;10.066;2022-07-23T09:00:40;5.03;;;4.53;;
5133;SDS011;2585;48.696;10.066;2022-07-23T09:03:09;5.37;;;4.87;;
5133;SDS011;2585;48.696;10.066;2022-07-23T09:05:42;5.20;;;4.70;;
5133;SDS011;2585;48.696;10.066;2022-07-23T09:08:10;5.23;;;4.73;;
5133;SDS011;2585;48.696;10.066;2022-07-23T09:13:39;7.87;;;4.70;;
5133;SDS011;2585;48.696;10.066;2022-07-23T09:16:07;5.40;;;4.90;;
5133;SDS011;2585;48.696;10.066;2022-07-23T09:21:11;6.20;;;5.00;;
5133;SDS011;2585;48.696;10.066;2022-07-23T09:28:59;5.60;;;5.10;;
5133;SDS011;2585;48.696;10.066;2022-07-23T09:31:30;5.83;;;4.90;;
5133;SDS011;2585;48.696;10.066;2022-07-23T09:34:42;4.90;;;4.50;;
5133;SDS011;2585;48.696;10.066;2022-07-23T09:36:51;6.07;;;5.47;;
5133;SDS011;2585;48.696;10.066;2022-07-23T09:39:30;8.00;;;5.50;;
5133;SDS011;2585;48.696;10.066;2022-07-23T09:41:59;7.03;;;5.30;;
5133;SDS011;2585;48.696;10.066;2022-07-23T09:44:47;5.50;;;5.00;;
5133;SDS011;2585;48.696;10.066;2022-07-23T09:47:15;6.10;;;5.50;;
5133;SDS011;2585;48.696;10.066;2022-07-23T09:50:02;4.97;;;4.57;;
5133;SDS011;2585;48.696;10.066;2022-07-23T09:52:32;7.40;;;5.10;;
5133;SDS011;2585;48.696;10.066;2022-07-23T09:55:04;6.60;;;5.77;;
5133;SDS011;2585;48.696;10.066;2022-07-23T09:57:32;6.43;;;5.27;;
5133;SDS011;2585;48.696;10.066;2022-07-23T10:00:06;6.93;;;5.00;;
5133;SDS011;2585;48.696;10.066;2022-07-23T10:02:36;6.13;;;5.53;;
5133;SDS011;2585;48.696;10.066;2022-07-23T10:05:04;6.90;;;5.20;;
5133;SDS011;2585;48.696;10.066;2022-07-23T10:07:33;4.67;;;4.27;;
5133;SDS011;2585;48.696;10.066;2022-07-23T10:10:03;6.07;;;5.10;;
5133;SDS011;2585;48.696;10.066;2022-07-23T10:12:31;5.90;;;5.40;;
5133;SDS011;2585;48.696;10.066;2022-07-23T10:15:10;6.33;;;5.70;;
5133;SDS011;2585;48.696;10.066;2022-07-23T10:17:37;6.33;;;5.20;;
5133;SDS011;2585;48.696;10.066;2022-07-23T10:20:04;6.47;;;5.17;;
5133;SDS011;2585;48.696;10.066;2022-07-23T10:22:35;5.90;;;5.30;;
5133;SDS011;2585;48.696;10.066;2022-07-23T10:35:58;5.77;;;5.17;;
5133;SDS011;2585;48.696;10.066;2022-07-23T10:41:35;6.00;;;5.50;;
5133;SDS011;2585;48.696;10.066;2022-07-23T10:44:12;6.30;;;5.70;;
5133;SDS011;2585;48.696;10.066;2022-07-23T10:46:53;6.43;;;5.17;;
5133;SDS011;2585;48.696;10.066;2022-07-23T10:49:34;5.63;;;5.13;;
5133;SDS011;2585;48.696;10.066;2022-07-23T10:54:42;5.50;;;5.00;;
5133;SDS011;2585;48.696;10.066;2022-07-23T10:57:09;6.53;;;5.50;;
5133;SDS011;2585;48.696;10.066;2022-07-23T11:02:28;6.10;;;5.43;;
5133;SDS011;2585;48.696;10.066;2022-07-23T11:05:00;6.13;;;5.53;;
5133;SDS011;2585;48.696;10.066;2022-07-23T11:07:32;6.53;;;5.93;;
5133;SDS011;2585;48.696;10.066;2022-07-23T11:10:03;6.40;;;5.80;;
5133;SDS011;2585;48.696;10.066;2022-07-23T11:17:25;6.10;;;5.40;;
5133;SDS011;2585;48.696;10.066;2022-07-23T11:22:39;6.27;;;5.37;;
5133;SDS011;2585;48.696;10.066;2022-07-23T11:25:13;8.10;;;5.57;;
5133;SDS011;2585;48.696;10.066;2022-07-23T11:27:55;10.40;;;5.30;;
5133;SDS011;2585;48.696;10.066;2022-07-23T11:30:42;7.53;;;5.93;;
5133;SDS011;2585;48.696;10.066;2022-07-23T11:35:38;6.77;;;6.10;;
5133;SDS011;2585;48.696;10.066;2022-07-23T11:38:20;5.70;;;5.10;;
5133;SDS011;2585;48.696;10.066;2022-07-23T11:40:50;5.50;;;5.00;;
5133;SDS011;2585;48.696;10.066;2022-07-23T11:43:20;5.53;;;5.10;;
5133;SDS011;2585;48.696;10.066;2022-07-23T11:45:49;14.33;;;5.60;;
5133;SDS011;2585;48.696;10.066;2022-07-23T11:48:23;9.87;;;5.50;;
5133;SDS011;2585;48.696;10.066;2022-07-23T11:50:56;6.00;;;5.50;;
5133;SDS011;2585;48.696;10.066;2022-07-23T11:53:24;6.67;;;5.87;;
5133;SDS011;2585;48.696;10.066;2022-07-23T11:56:08;5.90;;;5.40;;
5133;SDS011;2585;48.696;10.066;2022-07-23T11:58:37;7.77;;;5.37;;
5133;SDS011;2585;48.696;10.066;2022-07-23T12:01:06;7.20;;;5.80;;
5133;SDS011;2585;48.696;10.066;2022-07-23T12:03:48;6.37;;;5.23;;
5133;SDS011;2585;48.696;10.066;2022-07-23T12:06:18;7.33;;;5.70;;
5133;SDS011;2585;48.696;10.066;2022-07-23T12:08:45;6.23;;;5.63;;
5133;SDS011;2585;48.696;10.066;2022-07-23T12:11:11;6.33;;;5.73;;
5133;SDS011;2585;48.696;10.066;2022-07-23T12:13:38;6.50;;;5.90;;
5133;SDS011;2585;48.696;10.066;2022-07-23T12:16:06;7.00;;;6.00;;
5133;SDS011;2585;48.696;10.066;2022-07-23T12:18:34;6.27;;;5.67;;
5133;SDS011;2585;48.696;10.066;2022-07-23T12:21:03;7.10;;;5.17;;
5133;SDS011;2585;48.696;10.066;2022-07-23T12:23:31;6.00;;;5.40;;
5133;SDS011;2585;48.696;10.066;2022-07-23T12:26:00;7.13;;;5.80;;
5133;SDS011;2585;48.696;10.066;2022-07-23T12:28:29;5.70;;;5.20;;
5133;SDS011;2585;48.696;10.066;2022-07-23T12:30:59;6.60;;;5.80;;
5133;SDS011;2585;48.696;10.066;2022-07-23T12:33:31;5.67;;;5.10;;
5133;SDS011;2585;48.696;10.066;2022-07-23T12:35:59;5.53;;;5.03;;
5133;SDS011;2585;48.696;10.066;2022-07-23T12:38:36;8.37;;;5.77;;
5133;SDS011;2585;48.696;10.066;2022-07-23T12:41:08;8.23;;;5.50;;
5133;SDS011;2585;48.696;10.066;2022-07-23T12:43:36;5.50;;;5.00;;
5133;SDS011;2585;48.696;10.066;2022-07-23T12:56:39;5.50;;;5.00;;
5133;SDS011;2585;48.696;10.066;2022-07-23T12:59:14;5.03;;;4.63;;
5133;SDS011;2585;48.696;10.066;2022-07-23T13:01:45;5.33;;;4.60;;
5133;SDS011;2585;48.696;10.066;2022-07-23T13:04:21;5.50;;;4.47;;
5133;SDS011;2585;48.696;10.066;2022-07-23T13:06:50;4.87;;;4.37;;
5133;SDS011;2585;48.696;10.066;2022-07-23T13:09:20;5.40;;;4.90;;
5133;SDS011;2585;48.696;10.066;2022-07-23T13:11:51;6.40;;;5.37;;
5133;SDS011;2585;48.696;10.066;2022-07-23T13:14:22;5.87;;;5.27;;
5133;SDS011;2585;48.696;10.066;2022-07-23T13:16:52;7.27;;;5.20;;
5133;SDS011;2585;48.696;10.066;2022-07-23T13:19:22;5.57;;;5.07;;
5133;SDS011;2585;48.696;10.066;2022-07-23T13:21:51;6.83;;;6.00;;
5133;SDS011;2585;48.696;10.066;2022-07-23T13:24:18;6.00;;;5.50;;
5133;SDS011;2585;48.696;10.066;2022-07-23T13:26:46;5.40;;;4.90;;
5133;SDS011;2585;48.696;10.066;2022-07-23T13:29:16;4.83;;;4.37;;
5133;SDS011;2585;48.696;10.066;2022-07-23T13:31:45;6.37;;;5.10;;
5133;SDS011;2585;48.696;10.066;2022-07-23T13:34:12;6.63;;;6.03;;
5133;SDS011;2585;48.696;10.066;2022-07-23T13:36:39;5.77;;;5.13;;
5133;SDS011;2585;48.696;10.066;2022-07-23T13:39:06;5.00;;;4.50;;
5133;SDS011;2585;48.696;10.066;2022-07-23T13:41:35;5.17;;;4.63;;
5133;SDS011;2585;48.696;10.066;2022-07-23T13:44:03;7.23;;;4.90;;
5133;SDS011;2585;48.696;10.066;2022-07-23T13:46:32;5.30;;;4.70;;
5133;SDS011;2585;48.696;10.066;2022-07-23T13:49:00;6.87;;;4.80;;
5133;SDS011;2585;48.696;10.066;2022-07-23T13:51:28;7.87;;;5.67;;
5133;SDS011;2585;48.696;10.066;2022-07-23T13:53:54;4.90;;;4.50;;
5133;SDS011;2585;48.696;10.066;2022-07-23T13:56:21;4.90;;;4.30;;
5133;SDS011;2585;48.696;10.066;2022-07-23T13:58:48;5.37;;;4.97;;
5133;SDS011;2585;48.696;10.066;2022-07-23T14:01:15;7.87;;;5.20;;
5133;SDS011;2585;48.696;10.066;2022-07-23T14:03:43;5.57;;;4.97;;
5133;SDS011;2585;48.696;10.066;2022-07-23T14:06:11;9.00;;;4.80;;
5133;SDS011;2585;48.696;10.066;2022-07-23T14:08:57;5.47;;;4.90;;
5133;SDS011;2585;48.696;10.066;2022-07-23T14:11:24;6.17;;;4.77;;
5133;SDS011;2585;48.696;10.066;2022-07-23T14:13:54;5.47;;;4.87;;
5133;SDS011;2585;48.696;10.066;2022-07-23T14:16:21;5.37;;;4.87;;
5133;SDS011;2585;48.696;10.066;2022-07-23T14:18:49;5.40;;;4.90;;
5133;SDS011;2585;48.696;10.066;2022-07-23T14:21:16;5.50;;;5.00;;
5133;SDS011;2585;48.696;10.066;2022-07-23T14:23:42;5.53;;;5.03;;
5133;SDS011;2585;48.696;10.066;2022-07-23T14:26:09;5.10;;;4.63;;
5133;SDS011;2585;48.696;10.066;2022-07-23T14:28:36;5.70;;;4.70;;
5133;SDS011;2585;48.696;10.066;2022-07-23T14:31:05;5.20;;;4.70;;
5133;SDS011;2585;48.696;10.066;2022-07-23T14:33:46;5.13;;;4.37;;
5133;SDS011;2585;48.696;10.066;2022-07-23T14:36:13;5.00;;;4.50;;
5133;SDS011;2585;48.696;10.066;2022-07-23T14:38:41;4.63;;;4.20;;
5133;SDS011;2585;48.696;10.066;2022-07-23T14:41:08;7.13;;;5.77;;
5133;SDS011;2585;48.696;10.066;2022-07-23T14:43:36;5.10;;;4.60;;
5133;SDS011;2585;48.696;10.066;2022-07-23T14:46:04;5.60;;;5.10;;
5133;SDS011;2585;48.696;10.066;2022-07-23T14:48:31;5.80;;;4.90;;
5133;SDS011;2585;48.696;10.066;2022-07-23T14:50:58;6.40;;;5.13;;
5133;SDS011;2585;48.696;10.066;2022-07-23T14:53:25;7.33;;;4.93;;
5133;SDS011;2585;48.696;10.066;2022-07-23T14:55:55;6.80;;;5.47;;
5133;SDS011;2585;48.696;10.066;2022-07-23T14:58:23;5.43;;;4.80;;
5133;SDS011;2585;48.696;10.066;2022-07-23T15:00:50;5.37;;;4.90;;
5133;SDS011;2585;48.696;10.066;2022-07-23T15:03:18;4.93;;;4.53;;
5133;SDS011;2585;48.696;10.066;2022-07-23T15:05:45;6.13;;;5.30;;
5133;SDS011;2585;48.696;10.066;2022-07-23T15:08:12;6.20;;;5.60;;
5133;SDS011;2585;48.696;10.066;2022-07-23T15:10:39;5.23;;;4.73;;
5133;SDS011;2585;48.696;10.066;2022-07-23T15:13:06;5.47;;;4.90;;
5133;SDS011;2585;48.696;10.066;2022-07-23T15:15:33;6.40;;;4.70;;
5133;SDS011;2585;48.696;10.066;2022-07-23T15:18:01;5.00;;;4.50;;
5133;SDS011;2585;48.696;10.066;2022-07-23T15:20:27;6.00;;;4.77;;
5133;SDS011;2585;48.696;10.066;2022-07-23T15:23:06;5.70;;;5.00;;
5133;SDS011;2585;48.696;10.066;2022-07-23T15:25:35;6.53;;;5.33;;
5133;SDS011;2585;48.696;10.066;2022-07-23T15:28:03;7.00;;;5.43;;
5133;SDS011;2585;48.696;10.066;2022-07-23T15:30:33;6.83;;;5.63;;
5133;SDS011;2585;48.696;10.066;2022-07-23T15:33:02;6.23;;;5.63;;
5133;SDS011;2585;48.696;10.066;2022-07-23T15:35:32;5.60;;;5.00;;
5133;SDS011;2585;48.696;10.066;2022-07-23T15:37:59;6.63;;;5.50;;
5133;SDS011;2585;48.696;10.066;2022-07-23T15:40:32;6.97;;;6.10;;
5133;SDS011;2585;48.696;10.066;2022-07-23T15:43:00;7.10;;;6.40;;
5133;SDS011;2585;48.696;10.066;2022-07-23T15:45:27;10.20;;;6.37;;
5133;SDS011;2585;48.696;10.066;2022-07-23T15:47:54;6.47;;;5.83;;
5133;SDS011;2585;48.696;10.066;2022-07-23T15:50:21;7.03;;;6.33;;
5133;SDS011;2585;48.696;10.066;2022-07-23T15:52:48;7.53;;;6.10;;
5133;SDS011;2585;48.696;10.066;2022-07-23T15:55:15;6.70;;;5.67;;
5133;SDS011;2585;48.696;10.066;2022-07-23T15:57:42;6.03;;;5.47;;
5133;SDS011;2585;48.696;10.066;2022-07-23T16:00:10;5.73;;;5.20;;
5133;SDS011;2585;48.696;10.066;2022-07-23T16:02:37;8.53;;;5.90;;